Station Historical Data
Daily Summary for January 8, 2018 Units:  Metric    English   Both
« Previous Day
Next Day »
Daily Weekly Monthly Yearly Custom
  High: Low: Average:
Temperature: -17.8 °C -0.7 °C 0.6 °C
Dew Point: -17.8 °C -8.2 °C -2 °C
Humidity: Humidity% 57% 83%
Wind Speed: 0km/h 4.8km/h 15.9km/h
Wind Gust: 0km/h - -
Wind- - SW
Pressure: 0 hPa 1011.4 hPa -
Precipitation: 7.87 mm    
Historical Graphs
 
 
Tabular Data for January 8, 2018
Time Temperature Dew Point Pressure Wind Wind Speed Wind Gust Humidity Rainfall Rate (Hourly)
-17.8 °C -17.8 °C 0 hPa Calm     Humidity% 0 mm
04:15 -0.6 °C -7.8 °C 1015.8 hPa SW 8 km/h 19.3 km/h 58% 0 mm
04:24 -0.6 °C -7.8 °C 1015.8 hPa SSW 9.7 km/h 17.7 km/h 58% 0 mm
04:35 -0.6 °C -7.8 °C 1015.5 hPa SW 9.7 km/h 12.9 km/h 58% 0 mm
04:45 -0.6 °C -7.9 °C 1015.5 hPa SSW 4.8 km/h 14.5 km/h 58% 0 mm
04:50 -0.7 °C -7.9 °C 1015.5 hPa South 8 km/h 9.7 km/h 58% 0 mm
04:55 -0.7 °C -8.2 °C 1015.5 hPa SSW 4.8 km/h 11.3 km/h 57% 0 mm
05:00 -0.7 °C -8.2 °C 1015.1 hPa SSW 4.8 km/h 11.3 km/h 57% 0 mm
05:05 -0.6 °C -8.1 °C 1015.1 hPa SSW 4.8 km/h 12.9 km/h 57% 0 mm
05:15 -0.6 °C -8.1 °C 1014.8 hPa SSW 6.4 km/h 14.5 km/h 57% 0 mm
05:20 -0.6 °C -8.1 °C 1014.8 hPa SSW 6.4 km/h 14.5 km/h 57% 0 mm
05:25 -0.6 °C -8.1 °C 1014.8 hPa SSW 4.8 km/h 11.3 km/h 57% 0 mm
05:34 -0.5 °C -8 °C 1014.4 hPa SSW 6.4 km/h 14.5 km/h 57% 0 mm
05:40 -0.4 °C -7.9 °C 1014.4 hPa SSW 11.3 km/h 12.9 km/h 57% 0 mm
05:45 -0.3 °C -7.8 °C 1014.1 hPa SW 4.8 km/h 17.7 km/h 57% 0 mm
05:50 -0.2 °C -7.7 °C 1014.1 hPa South 6.4 km/h 19.3 km/h 57% 0 mm
06:00 0.1 °C -7.4 °C 1014.1 hPa SW 6.4 km/h 17.7 km/h 57% 0 mm
06:10 0.2 °C -7.1 °C 1014.1 hPa South 8 km/h 24.1 km/h 58% 0 mm
06:15 0.2 °C -6.8 °C 1014.1 hPa WSW 9.7 km/h 27.4 km/h 59% 0 mm
06:30 0.3 °C -5.7 °C 1013.8 hPa SSW 11.3 km/h 20.9 km/h 64% 0 mm
06:35 0.2 °C -5.6 °C 1013.8 hPa SSW 11.3 km/h 19.3 km/h 65% 0 mm
06:40 0.2 °C -5.4 °C 1013.8 hPa SSW 9.7 km/h 19.3 km/h 66% 0 mm
06:50 0.1 °C -4.8 °C 1013.4 hPa SSW 9.7 km/h 19.3 km/h 70% 0 mm
07:00 -0.1 °C -4.4 °C 1013.4 hPa SSW 9.7 km/h 22.5 km/h 73% 0 mm
07:10 -0.2 °C -4.1 °C 1013.1 hPa SSW 9.7 km/h 19.3 km/h 75% 0 mm
07:15 -0.2 °C -3.9 °C 1013.1 hPa SSW 9.7 km/h 22.5 km/h 76% 0 mm
07:30 -0.1 °C -3.3 °C 1012.8 hPa SSW 9.7 km/h 17.7 km/h 79% 0 mm
07:40 0.1 °C -3 °C 1012.4 hPa SSW 9.7 km/h 22.5 km/h 80% 0 mm
07:50 0.1 °C -2.8 °C 1012.1 hPa SSW 11.3 km/h 22.5 km/h 81% 0 mm
08:00 0.1 °C -2.4 °C 1012.1 hPa SSW 11.3 km/h 20.9 km/h 83% 0 mm
08:10 0 °C -2.4 °C 1012.1 hPa SSW 12.9 km/h 27.4 km/h 84% 0 mm
08:20 -0.2 °C -2.2 °C 1012.1 hPa SSW 12.9 km/h 25.7 km/h 86% 0 mm
08:40 -0.3 °C -2.2 °C 1012.1 hPa SSW 11.3 km/h 29 km/h 87% 0 mm
08:55 -0.3 °C -2.1 °C 1012.1 hPa SSW 11.3 km/h 24.1 km/h 88% 0 mm
09:00 -0.3 °C -2.1 °C 1012.1 hPa SSW 12.9 km/h 24.1 km/h 88% 0 mm
09:05 -0.3 °C -2.1 °C 1012.1 hPa SSE 24.1 km/h 29 km/h 88% 0 mm
09:10 -0.3 °C -1.9 °C 1012.1 hPa SSE 4.8 km/h 24.1 km/h 89% 0 mm
09:25 -0.3 °C -1.9 °C 1012.1 hPa SSW 11.3 km/h 27.4 km/h 89% 0 mm
09:45 0 °C -1.4 °C 1012.1 hPa SW 14.5 km/h 30.6 km/h 90% 0 mm
10:05 0.3 °C -1.2 °C 1012.1 hPa SW 19.3 km/h 40.2 km/h 90% 0 mm
10:15 0.3 °C -1.1 °C 1012.1 hPa SW 17.7 km/h 35.4 km/h 90% 0 mm
10:20 0.3 °C -1.1 °C 1012.1 hPa SW 16.1 km/h 35.4 km/h 90% 0 mm
10:40 0.6 °C -0.9 °C 1012.1 hPa SW 19.3 km/h 38.6 km/h 90% 0 mm
11:05 0.6 °C -0.9 °C 1012.1 hPa SW 16.1 km/h 33.8 km/h 90% 0 mm
11:15 0.7 °C -0.7 °C 1012.1 hPa WSW 24.1 km/h 35.4 km/h 90% 0 mm
11:25 0.8 °C -0.7 °C 1012.1 hPa SW 17.7 km/h 37 km/h 90% 0 mm
11:35 0.8 °C -0.6 °C 1011.7 hPa SW 17.7 km/h 38.6 km/h 90% 0 mm
11:45 1.1 °C -0.5 °C 1011.7 hPa SW 19.3 km/h 37 km/h 89% 0 mm
11:59 1.1 °C -0.6 °C 1011.4 hPa SW 19.3 km/h 38.6 km/h 89% 0 mm
12:25 1 °C -0.6 °C 1011.4 hPa SW 19.3 km/h 37 km/h 89% 0 mm
12:30 1.1 °C -0.6 °C 1011.4 hPa West 14.5 km/h 35.4 km/h 89% 0 mm
12:40 1.1 °C -0.6 °C 1011.4 hPa SW 20.9 km/h 41.8 km/h 89% 0 mm
12:54 1.1 °C -0.6 °C 1011.4 hPa SW 20.9 km/h 43.5 km/h 89% 0 mm
12:59 1.1 °C -0.6 °C 1011.4 hPa SW 19.3 km/h 43.5 km/h 89% 0 mm
13:09 1.1 °C -0.6 °C 1011.4 hPa WSW 19.3 km/h 38.6 km/h 89% 0 mm
13:14 1.1 °C -0.5 °C 1011.4 hPa WSW 19.3 km/h 38.6 km/h 89% 0 mm
13:20 1.2 °C -0.4 °C 1011.4 hPa WSW 19.3 km/h 37 km/h 89% 0 mm
13:24 1.1 °C -0.5 °C 1011.7 hPa SW 24.1 km/h 37 km/h 89% 0 mm
13:34 1.2 °C -0.4 °C 1011.7 hPa South 16.1 km/h 37 km/h 89% 0 mm
13:39 1.1 °C -0.5 °C 1011.4 hPa WSW 20.9 km/h 37 km/h 89% 0 mm
13:44 1.2 °C -0.4 °C 1011.7 hPa SW 19.3 km/h 38.6 km/h 89% 0 mm
13:49 1.2 °C -0.4 °C 1011.7 hPa SW 16.1 km/h 43.5 km/h 89% 0 mm
13:54 1.2 °C -0.4 °C 1011.4 hPa SW 24.1 km/h 43.5 km/h 89% 0 mm
14:00 1.2 °C -0.4 °C 1011.7 hPa WSW 22.5 km/h 43.5 km/h 89% 0 mm
14:09 1.2 °C -0.4 °C 1011.7 hPa WSW 20.9 km/h 37 km/h 89% 0 mm
14:14 1.2 °C -0.4 °C 1012.1 hPa SW 27.4 km/h 33.8 km/h 89% 0 mm
14:19 1.1 °C -0.5 °C 1012.1 hPa WSW 37 km/h 45.1 km/h 89% 0 mm
14:24 1.1 °C -0.5 °C 1011.7 hPa WSW 20.9 km/h 45.1 km/h 89% 0 mm
14:30 1.1 °C -0.5 °C 1012.1 hPa WSW 22.5 km/h 35.4 km/h 89% 0 mm
14:34 1.1 °C -0.5 °C 1011.7 hPa WSW 19.3 km/h 40.2 km/h 89% 0 mm
14:40 1.1 °C -0.5 °C 1012.1 hPa WSW 19.3 km/h 40.2 km/h 89% 0 mm
14:45 1.1 °C -0.5 °C 1012.1 hPa WSW 19.3 km/h 35.4 km/h 89% 0 mm
14:54 1.1 °C -0.6 °C 1012.1 hPa SSW 19.3 km/h 38.6 km/h 89% 0.25 mm
15:00 1.1 °C -0.6 °C 1012.1 hPa SW 25.7 km/h 37 km/h 89% 0.25 mm
15:05 1.1 °C -0.6 °C 1012.1 hPa SW 19.3 km/h 37 km/h 89% 0.25 mm
15:55 1 °C -0.4 °C 1012.1 hPa WSW 17.7 km/h 29 km/h 90% 0.51 mm
16:15 1 °C -0.4 °C 1012.1 hPa SW 12.9 km/h 35.4 km/h 90% 0.76 mm
16:35 1 °C -0.4 °C 1012.1 hPa WSW 19.3 km/h 33.8 km/h 90% 1.02 mm
17:00 0.9 °C -0.4 °C 1012.1 hPa WSW 17.7 km/h 32.2 km/h 91% 1.52 mm
17:15 0.8 °C -0.4 °C 1012.4 hPa WSW 16.1 km/h 35.4 km/h 91% 1.78 mm
17:20 0.8 °C -0.4 °C 1012.4 hPa WSW 16.1 km/h 35.4 km/h 91% 1.78 mm
17:35 0.9 °C -0.4 °C 1012.1 hPa WSW 17.7 km/h 35.4 km/h 91% 2.03 mm
17:55 0.9 °C -0.3 °C 1012.4 hPa WSW 17.7 km/h 45.1 km/h 91% 2.03 mm
18:00 0.9 °C -0.3 °C 1012.4 hPa WSW 16.1 km/h 33.8 km/h 91% 2.03 mm
18:05 0.9 °C -0.3 °C 1012.8 hPa WSW 16.1 km/h 33.8 km/h 91% 1.78 mm
18:10 0.9 °C -0.4 °C 1012.8 hPa WSW 16.1 km/h 35.4 km/h 91% 2.03 mm
18:20 0.9 °C -0.4 °C 1012.8 hPa SW 6.4 km/h 35.4 km/h 91% 1.78 mm
18:25 0.9 °C -0.4 °C 1013.1 hPa WSW 16.1 km/h 35.4 km/h 91% 2.03 mm
18:40 0.9 °C -0.4 °C 1013.1 hPa WSW 16.1 km/h 33.8 km/h 91% 2.03 mm
18:50 0.9 °C -0.6 °C 1013.1 hPa WSW 17.7 km/h 37 km/h 90% 2.03 mm
18:54 0.9 °C -0.5 °C 1013.4 hPa WSW 17.7 km/h 30.6 km/h 90% 1.78 mm
19:00 0.9 °C -0.6 °C 1013.4 hPa WSW 14.5 km/h 29 km/h 90% 1.52 mm
19:05 0.9 °C -0.6 °C 1013.4 hPa WSW 16.1 km/h 33.8 km/h 90% 1.78 mm
19:10 0.9 °C -0.6 °C 1013.4 hPa WSW 11.3 km/h 29 km/h 90% 1.52 mm
19:14 0.9 °C -0.5 °C 1013.4 hPa WSW 16.1 km/h 32.2 km/h 90% 1.27 mm
19:15 0.9 °C -0.5 °C 1013.4 hPa WSW 19.3 km/h 32.2 km/h 90% 1.52 mm
19:25 0.9 °C -0.5 °C 1013.8 hPa WSW 17.7 km/h 33.8 km/h 90% 1.27 mm
19:35 1 °C -0.6 °C 1014.1 hPa WSW 16.1 km/h 30.6 km/h 89% 1.02 mm
19:40 1 °C -0.6 °C 1014.1 hPa West 12.9 km/h 29 km/h 89% 0.76 mm
19:44 1 °C -0.6 °C 1013.8 hPa West 14.5 km/h 32.2 km/h 89% 0.76 mm
19:45 1 °C -0.6 °C 1013.8 hPa WSW 16.1 km/h 32.2 km/h 89% 0.76 mm
19:50 1 °C -0.6 °C 1013.8 hPa WSW 16.1 km/h 32.2 km/h 89% 0.76 mm
19:54 1 °C -0.6 °C 1013.8 hPa WSW 17.7 km/h 37 km/h 89% 0.76 mm
20:00 1 °C -0.8 °C 1013.8 hPa SW 22.5 km/h 27.4 km/h 88% 0.76 mm
20:05 1.1 °C -0.7 °C 1013.8 hPa WNW 19.3 km/h 38.6 km/h 88% 0.51 mm
20:10 1.1 °C -0.7 °C 1014.1 hPa WSW 17.7 km/h 38.6 km/h 88% 0.51 mm
20:14 1.1 °C -0.7 °C 1013.8 hPa WSW 16.1 km/h 35.4 km/h 88% 0.51 mm
20:24 1.1 °C -0.8 °C 1014.1 hPa WSW 17.7 km/h 38.6 km/h 87% 0.51 mm
20:25 1.1 °C -0.8 °C 1014.1 hPa WSW 16.1 km/h 38.6 km/h 87% 0.51 mm
20:29 1.1 °C -0.8 °C 1014.1 hPa WSW 19.3 km/h 38.6 km/h 87% 0.51 mm
20:30 1.1 °C -0.8 °C 1014.1 hPa SSW 14.5 km/h 37 km/h 87% 0.51 mm
20:34 1.1 °C -0.8 °C 1014.1 hPa WSW 19.3 km/h 41.8 km/h 87% 0.51 mm
20:40 1.1 °C -0.8 °C 1014.1 hPa SW 16.1 km/h 30.6 km/h 87% 0.51 mm
20:41 1.1 °C -0.8 °C 1014.1 hPa WSW 17.7 km/h 41.8 km/h 87% 0.51 mm
20:45 1.1 °C -0.9 °C 1014.1 hPa SW 17.7 km/h 29 km/h 86% 0.51 mm
20:49 1.1 °C -0.8 °C 1014.1 hPa WSW 12.9 km/h 29 km/h 87% 0.25 mm
20:50 1.1 °C -0.8 °C 1014.1 hPa WSW 14.5 km/h 29 km/h 87% 0.25 mm
20:54 1.1 °C -0.8 °C 1014.1 hPa West 24.1 km/h 32.2 km/h 87% 0.25 mm
21:00 1.1 °C -1 °C 1014.1 hPa WSW 17.7 km/h 33.8 km/h 86% 0.51 mm
21:05 1.1 °C -1 °C 1014.1 hPa WSW 17.7 km/h 37 km/h 86% 0.51 mm
21:14 1.1 °C -1 °C 1014.1 hPa SW 19.3 km/h 35.4 km/h 86% 0.51 mm
21:20 1.1 °C -1 °C 1014.1 hPa WSW 19.3 km/h 35.4 km/h 86% 0.51 mm
21:24 1.1 °C -1 °C 1014.1 hPa West 35.4 km/h 37 km/h 86% 0.25 mm
21:25 1.1 °C -1 °C 1014.1 hPa WSW 20.9 km/h 37 km/h 86% 0.25 mm
21:29 1.1 °C -1 °C 1014.1 hPa WSW 19.3 km/h 37 km/h 86% 0.25 mm
21:34 1 °C -1.1 °C 1014.1 hPa SSW 20.9 km/h 35.4 km/h 86% 0.25 mm
21:39 1.1 °C -1 °C 1014.1 hPa WSW 12.9 km/h 35.4 km/h 86% 0.25 mm
21:44 1 °C -1.1 °C 1014.1 hPa WSW 17.7 km/h 35.4 km/h 86% 0.51 mm
21:50 1 °C -1.1 °C 1014.1 hPa WSW 16.1 km/h 35.4 km/h 86% 0.51 mm
21:54 1 °C -1.1 °C 1014.1 hPa West 19.3 km/h 35.4 km/h 86% 0.51 mm
21:59 1 °C -1.1 °C 1014.1 hPa West 11.3 km/h 35.4 km/h 86% 0.25 mm
22:04 1 °C -1.1 °C 1014.1 hPa WSW 17.7 km/h 37 km/h 86% 0.25 mm
22:10 1 °C -0.9 °C 1014.4 hPa WSW 16.1 km/h 37 km/h 87% 0.25 mm
22:14 0.9 °C -1 °C 1014.4 hPa SW 17.7 km/h 29 km/h 87% 0.25 mm
22:24 0.9 °C -1 °C 1014.4 hPa SSW 14.5 km/h 29 km/h 87% 0.25 mm
22:29 0.9 °C -1 °C 1014.4 hPa WSW 17.7 km/h 33.8 km/h 87% 0.51 mm
22:34 0.9 °C -1 °C 1014.4 hPa WSW 17.7 km/h 38.6 km/h 87% 0.51 mm
22:39 0.9 °C -1 °C 1014.4 hPa SW 20.9 km/h 37 km/h 87% 0.51 mm
22:54 0.9 °C -1.1 °C 1014.8 hPa WSW 17.7 km/h 29 km/h 87% 0.25 mm
22:59 0.8 °C -1.1 °C 1014.8 hPa WSW 20.9 km/h 29 km/h 87% 0.25 mm
23:04 0.8 °C -1.1 °C 1014.8 hPa WSW 17.7 km/h 30.6 km/h 87% 0.25 mm
23:14 0.8 °C -1.1 °C 1014.8 hPa WSW 16.1 km/h 32.2 km/h 87% 0.25 mm
23:19 0.8 °C -1.1 °C 1015.1 hPa SW 20.9 km/h 30.6 km/h 87% 0.25 mm
23:24 0.8 °C -1.1 °C 1015.1 hPa WSW 17.7 km/h 32.2 km/h 87% 0.25 mm
23:29 0.8 °C -1.2 °C 1015.1 hPa WSW 17.7 km/h 35.4 km/h 87% 0 mm
23:34 0.8 °C -1.2 °C 1015.1 hPa WSW 17.7 km/h 38.6 km/h 87% 0.25 mm
23:40 0.8 °C -1.2 °C 1015.1 hPa WSW 19.3 km/h 38.6 km/h 87% 0.25 mm
23:44 0.7 °C -1.2 °C 1015.1 hPa WSW 11.3 km/h 29 km/h 87% 0.25 mm
23:49 0.7 °C -1.2 °C 1015.1 hPa WSW 16.1 km/h 40.2 km/h 87% 0.25 mm
23:54 0.7 °C -1.2 °C 1015.1 hPa WSW 17.7 km/h 40.2 km/h 87% 0.25 mm
Buffalo, New York, USA
Compliments of Weather Underground - 1.75 mb